Time;durP1;ratioP1;P1;durP2;ratioP2;P2;SDS_P1;SDS_P2;PMS_P1;PMS_P2;Temp;Humidity;BMP_temperature;BMP_pressure;BME280_temperature;BME280_humidity;BME280_pressure;Samples;Min_cycle;Max_cycle;Signal;HPM_P1;HPM_P2
2022/05/21 00:00:50;;;;;;;1.83;1.30;;;;;;;;;;5051471;28;20195;-75
2022/05/21 00:03:17;;;;;;;1.67;1.40;;;;;;;;;;5047184;28;20210;-76
2022/05/21 00:05:46;;;;;;;2.00;1.27;;;;;;;;;;5048214;28;20210;-76
2022/05/21 00:08:13;;;;;;;4.38;1.65;;;;;;;;;;5046583;28;20570;-76
2022/05/21 00:10:43;;;;;;;1.75;1.13;;;;;;;;;;5052452;28;20219;-76
2022/05/21 00:13:11;;;;;;;3.15;1.58;;;;;;;;;;5039697;28;20207;-76
2022/05/21 00:15:38;;;;;;;2.85;1.30;;;;;;;;;;5044143;28;20206;-78
2022/05/21 00:18:06;;;;;;;2.85;2.38;;;;;;;;;;5043771;28;20207;-79
2022/05/21 00:20:49;;;;;;;2.47;1.30;;;;;;;;;;5041869;28;20199;-78
2022/05/21 00:23:17;;;;;;;3.53;1.30;;;;;;;;;;5047012;28;20203;-78
2022/05/21 00:25:47;;;;;;;2.60;1.30;;;;;;;;;;5052863;28;20294;-76
2022/05/21 00:28:14;;;;;;;2.10;1.38;;;;;;;;;;5048059;28;20555;-76
2022/05/21 00:30:42;;;;;;;2.75;1.20;;;;;;;;;;5049791;28;20238;-77
2022/05/21 00:33:09;;;;;;;1.50;1.10;;;;;;;;;;5050189;28;20654;-76
2022/05/21 00:35:36;;;;;;;1.63;1.30;;;;;;;;;;5042917;28;20202;-76
2022/05/21 00:38:03;;;;;;;3.67;1.30;;;;;;;;;;5035068;28;20209;-75
2022/05/21 00:40:30;;;;;;;2.42;1.50;;;;;;;;;;5047415;28;20646;-75
2022/05/21 00:42:59;;;;;;;1.63;1.45;;;;;;;;;;5038731;28;20219;-77
2022/05/21 00:45:26;;;;;;;1.73;1.35;;;;;;;;;;5045973;28;20206;-76
2022/05/21 00:47:53;;;;;;;2.10;1.55;;;;;;;;;;5049300;28;20195;-75
2022/05/21 00:50:22;;;;;;;1.60;1.50;;;;;;;;;;5040834;28;20216;-75
2022/05/21 00:52:50;;;;;;;1.65;1.55;;;;;;;;;;5048156;28;20205;-75
2022/05/21 00:55:18;;;;;;;3.83;1.35;;;;;;;;;;5047791;28;20203;-76
2022/05/21 00:57:47;;;;;;;1.80;1.33;;;;;;;;;;5046648;28;20571;-75
2022/05/21 01:00:17;;;;;;;2.17;1.80;;;;;;;;;;5049614;28;20294;-76
2022/05/21 01:02:48;;;;;;;2.75;2.03;;;;;;;;;;5039968;28;20207;-76
2022/05/21 01:05:16;;;;;;;2.58;1.85;;;;;;;;;;5050318;28;20199;-77
2022/05/21 01:07:44;;;;;;;3.50;1.80;;;;;;;;;;5043376;28;20664;-76
2022/05/21 01:10:12;;;;;;;1.58;1.38;;;;;;;;;;5052096;28;20222;-75
2022/05/21 01:12:41;;;;;;;1.75;1.65;;;;;;;;;;5040442;28;20669;-76
2022/05/21 01:15:11;;;;;;;2.10;1.67;;;;;;;;;;5049756;28;20206;-75
2022/05/21 01:17:39;;;;;;;2.50;2.30;;;;;;;;;;5032404;28;20205;-77
2022/05/21 01:20:08;;;;;;;5.05;2.30;;;;;;;;;;5043111;28;20301;-77
2022/05/21 01:22:41;;;;;;;2.15;1.95;;;;;;;;;;5049002;28;20202;-75
2022/05/21 01:25:09;;;;;;;7.55;3.53;;;;;;;;;;5037763;28;20199;-79
2022/05/21 01:27:36;;;;;;;3.88;2.47;;;;;;;;;;5044699;28;20654;-77
2022/05/21 01:30:04;;;;;;;4.63;2.60;;;;;;;;;;5049346;28;20221;-80
2022/05/21 01:32:32;;;;;;;2.90;2.60;;;;;;;;;;5046098;28;20670;-76
2022/05/21 01:34:59;;;;;;;3.35;2.30;;;;;;;;;;5047454;28;20217;-78
2022/05/21 01:37:26;;;;;;;2.78;2.28;;;;;;;;;;5038587;28;20662;-78
2022/05/21 01:39:54;;;;;;;3.88;2.58;;;;;;;;;;5049078;28;20562;-78
2022/05/21 01:42:21;;;;;;;2.75;2.35;;;;;;;;;;5049500;28;20724;-77
2022/05/21 01:44:52;;;;;;;3.83;2.42;;;;;;;;;;5040320;28;20226;-76
2022/05/21 01:47:20;;;;;;;3.97;2.95;;;;;;;;;;5048290;28;20198;-76
2022/05/21 01:49:47;;;;;;;2.92;2.22;;;;;;;;;;5041220;28;20254;-76
2022/05/21 01:52:15;;;;;;;3.67;2.60;;;;;;;;;;5047612;28;20642;-76
2022/05/21 01:54:42;;;;;;;3.05;2.85;;;;;;;;;;5045642;28;20203;-76
2022/05/21 01:57:11;;;;;;;2.60;2.40;;;;;;;;;;5045357;28;20211;-78
2022/05/21 01:59:39;;;;;;;3.75;2.58;;;;;;;;;;5042801;28;20618;-77
2022/05/21 02:02:06;;;;;;;3.50;2.60;;;;;;;;;;5045950;28;20655;-77
2022/05/21 02:04:34;;;;;;;5.18;3.10;;;;;;;;;;5043206;28;20617;-78
2022/05/21 02:07:01;;;;;;;3.28;2.40;;;;;;;;;;5038631;28;20206;-78
2022/05/21 02:09:28;;;;;;;5.20;2.60;;;;;;;;;;5037305;28;20195;-78
2022/05/21 02:11:56;;;;;;;3.75;2.72;;;;;;;;;;5046127;28;20195;-81
2022/05/21 02:14:24;;;;;;;2.83;2.63;;;;;;;;;;5038531;28;20198;-80
2022/05/21 02:16:53;;;;;;;3.20;2.03;;;;;;;;;;5046110;28;20207;-78
2022/05/21 02:19:20;;;;;;;2.90;2.30;;;;;;;;;;5047190;28;20207;-79
2022/05/21 02:21:47;;;;;;;3.15;2.80;;;;;;;;;;5047112;28;20203;-79
2022/05/21 02:24:14;;;;;;;4.13;3.78;;;;;;;;;;5048316;28;20206;-82
2022/05/21 02:26:41;;;;;;;3.47;2.80;;;;;;;;;;5044912;28;20191;-78
2022/05/21 02:29:08;;;;;;;3.88;2.53;;;;;;;;;;5046078;28;20206;-78
2022/05/21 02:31:37;;;;;;;3.90;2.50;;;;;;;;;;5034864;28;20251;-78
2022/05/21 02:34:04;;;;;;;3.10;2.80;;;;;;;;;;5043232;28;20207;-77
2022/05/21 02:39:29;;;;;;;2.80;2.60;;;;;;;;;;5043872;28;20569;-78
2022/05/21 02:41:56;;;;;;;2.85;2.58;;;;;;;;;;5036042;28;20237;-79
2022/05/21 02:44:23;;;;;;;3.30;3.00;;;;;;;;;;5046849;28;20582;-78
2022/05/21 02:46:52;;;;;;;6.00;3.45;;;;;;;;;;5042753;28;20195;-79
2022/05/21 02:49:19;;;;;;;3.30;2.63;;;;;;;;;;5046406;28;20207;-80
2022/05/21 02:51:47;;;;;;;3.67;2.58;;;;;;;;;;5037607;28;20219;-80
2022/05/21 02:54:14;;;;;;;3.05;2.28;;;;;;;;;;5048336;28;20615;-80
2022/05/21 02:56:44;;;;;;;2.42;1.90;;;;;;;;;;5042613;28;20195;-80
2022/05/21 02:59:11;;;;;;;2.95;2.65;;;;;;;;;;5043552;28;20203;-80
2022/05/21 03:01:39;;;;;;;5.03;3.05;;;;;;;;;;5051586;28;20206;-79
2022/05/21 03:04:08;;;;;;;2.75;2.55;;;;;;;;;;5051305;28;20716;-80
2022/05/21 03:06:35;;;;;;;3.15;2.22;;;;;;;;;;5042532;28;20256;-79
2022/05/21 03:11:47;;;;;;;2.55;2.35;;;;;;;;;;5047425;28;20257;-80
2022/05/21 03:14:15;;;;;;;1.95;1.83;;;;;;;;;;5049279;28;20205;-81
2022/05/21 03:16:42;;;;;;;3.53;2.97;;;;;;;;;;5051441;28;20217;-79
2022/05/21 03:19:11;;;;;;;5.85;2.58;;;;;;;;;;5043806;28;20225;-80
2022/05/21 03:21:38;;;;;;;2.20;2.00;;;;;;;;;;5051066;28;20205;-80
2022/05/21 03:24:06;;;;;;;5.80;2.60;;;;;;;;;;5053653;28;20199;-79
2022/05/21 03:26:33;;;;;;;2.20;2.00;;;;;;;;;;5051112;28;20195;-80
2022/05/21 03:29:00;;;;;;;5.22;1.90;;;;;;;;;;5049257;28;20203;-80
2022/05/21 03:31:28;;;;;;;3.80;1.95;;;;;;;;;;5049091;28;20343;-79
2022/05/21 03:33:55;;;;;;;3.35;2.20;;;;;;;;;;5045792;28;20544;-79
2022/05/21 03:36:23;;;;;;;2.35;1.83;;;;;;;;;;5050756;28;20291;-79
2022/05/21 03:38:51;;;;;;;2.92;2.38;;;;;;;;;;5050909;28;20191;-80
2022/05/21 03:41:18;;;;;;;3.80;2.03;;;;;;;;;;5038573;28;20292;-80
2022/05/21 03:43:46;;;;;;;5.10;2.50;;;;;;;;;;5048996;28;20207;-80
2022/05/21 03:46:13;;;;;;;3.78;2.70;;;;;;;;;;5041154;28;20663;-80
2022/05/21 03:48:40;;;;;;;3.38;2.42;;;;;;;;;;5044927;28;20567;-79
2022/05/21 03:51:07;;;;;;;2.20;2.00;;;;;;;;;;5044880;28;20225;-78
2022/05/21 03:53:36;;;;;;;2.90;2.70;;;;;;;;;;5046686;28;20200;-80
2022/05/21 03:56:03;;;;;;;4.30;3.83;;;;;;;;;;5047129;28;20207;-79
2022/05/21 03:58:31;;;;;;;2.58;2.38;;;;;;;;;;5052028;28;20207;-80
2022/05/21 04:00:59;;;;;;;4.35;2.67;;;;;;;;;;5044777;28;20282;-79
2022/05/21 04:03:26;;;;;;;4.10;2.80;;;;;;;;;;5049745;28;20195;-79
2022/05/21 04:05:55;;;;;;;3.90;3.60;;;;;;;;;;5042565;28;20202;-79
2022/05/21 04:08:22;;;;;;;4.45;3.90;;;;;;;;;;5049875;28;20273;-79
2022/05/21 04:10:51;;;;;;;4.60;4.20;;;;;;;;;;5050430;28;20219;-80
2022/05/21 04:13:19;;;;;;;3.83;3.35;;;;;;;;;;5046571;28;20203;-77
2022/05/21 04:15:46;;;;;;;4.40;4.00;;;;;;;;;;5046465;28;20211;-78
2022/05/21 04:18:13;;;;;;;5.13;3.45;;;;;;;;;;5046691;28;20210;-80
2022/05/21 04:20:41;;;;;;;3.53;3.22;;;;;;;;;;5039464;28;20192;-78
2022/05/21 04:23:08;;;;;;;4.90;4.47;;;;;;;;;;5044461;28;20210;-77
2022/05/21 04:25:35;;;;;;;4.85;4.25;;;;;;;;;;5048482;28;20195;-77
2022/05/21 04:28:04;;;;;;;4.40;3.90;;;;;;;;;;5041199;28;20215;-81
2022/05/21 04:30:35;;;;;;;4.30;3.90;;;;;;;;;;5046629;28;20221;-79
2022/05/21 04:33:03;;;;;;;5.25;4.75;;;;;;;;;;5044062;28;20210;-81
2022/05/21 04:36:17;;;;;;;4.97;4.55;;;;;;;;;;5040319;28;20676;-79
2022/05/21 04:38:18;;;;;;;6.53;5.18;;;;;;;;;;5041370;28;20741;-77
2022/05/21 04:40:46;;;;;;;6.53;4.93;;;;;;;;;;5048456;28;21912;-77
2022/05/21 04:43:14;;;;;;;7.82;4.88;;;;;;;;;;5051236;28;20268;-78
2022/05/21 04:45:42;;;;;;;5.90;5.07;;;;;;;;;;5042494;28;20195;-76
2022/05/21 04:48:09;;;;;;;6.70;5.50;;;;;;;;;;5051657;28;20210;-79
2022/05/21 04:50:37;;;;;;;5.57;5.03;;;;;;;;;;5040752;28;20223;-79
2022/05/21 04:53:04;;;;;;;6.85;5.75;;;;;;;;;;5042110;28;20214;-78
2022/05/21 04:55:32;;;;;;;5.68;4.63;;;;;;;;;;5034816;28;20246;-78
2022/05/21 04:57:59;;;;;;;4.93;4.53;;;;;;;;;;5047834;28;20210;-79
2022/05/21 05:00:28;;;;;;;6.78;4.60;;;;;;;;;;5044662;28;20195;-79
2022/05/21 05:02:55;;;;;;;4.93;4.47;;;;;;;;;;5043571;28;20286;-81
2022/05/21 05:05:22;;;;;;;6.68;4.75;;;;;;;;;;5050915;28;20203;-78
2022/05/21 05:07:49;;;;;;;5.78;4.95;;;;;;;;;;5049154;28;20206;-77
2022/05/21 05:10:17;;;;;;;5.38;4.78;;;;;;;;;;5047738;28;20547;-77
2022/05/21 05:12:44;;;;;;;6.55;4.95;;;;;;;;;;5046580;28;20198;-80
2022/05/21 05:15:11;;;;;;;5.20;4.80;;;;;;;;;;5047378;28;20660;-80
2022/05/21 05:17:40;;;;;;;5.20;4.70;;;;;;;;;;5043817;28;20207;-78
2022/05/21 05:20:08;;;;;;;5.50;5.00;;;;;;;;;;5042163;28;20254;-78
2022/05/21 05:22:35;;;;;;;5.10;4.70;;;;;;;;;;5049744;28;20190;-78
2022/05/21 05:25:04;;;;;;;5.20;4.70;;;;;;;;;;5042435;28;20207;-80
2022/05/21 05:27:31;;;;;;;5.50;4.82;;;;;;;;;;5042074;28;20203;-79
2022/05/21 05:29:58;;;;;;;7.97;5.43;;;;;;;;;;5040251;28;20563;-79
2022/05/21 05:32:25;;;;;;;4.50;4.18;;;;;;;;;;5046097;28;20234;-79
2022/05/21 05:34:53;;;;;;;6.30;5.70;;;;;;;;;;5042837;28;20192;-79
2022/05/21 05:37:21;;;;;;;4.80;4.38;;;;;;;;;;5046794;28;20191;-79
2022/05/21 05:39:48;;;;;;;4.93;4.40;;;;;;;;;;5050551;28;20199;-81
2022/05/21 05:42:17;;;;;;;5.45;4.40;;;;;;;;;;5042905;28;20277;-79
2022/05/21 05:44:44;;;;;;;5.45;4.35;;;;;;;;;;5045988;28;20654;-80
2022/05/21 05:47:11;;;;;;;5.78;5.28;;;;;;;;;;5047491;28;20195;-80
2022/05/21 05:49:38;;;;;;;5.40;4.97;;;;;;;;;;5041185;28;20214;-79
2022/05/21 05:52:08;;;;;;;7.38;4.70;;;;;;;;;;5048029;28;20230;-79
2022/05/21 05:54:35;;;;;;;5.03;4.60;;;;;;;;;;5046851;28;20190;-79
2022/05/21 05:57:03;;;;;;;4.50;4.10;;;;;;;;;;5039708;28;20226;-80
2022/05/21 06:04:59;;;;;;;5.07;4.55;;;;;;;;;;5048151;28;20710;-79
2022/05/21 06:07:27;;;;;;;5.75;4.50;;;;;;;;;;5048956;28;20203;-81
2022/05/21 06:09:55;;;;;;;4.85;4.45;;;;;;;;;;5049813;28;20650;-80
2022/05/21 06:12:22;;;;;;;5.10;4.60;;;;;;;;;;5042603;28;20295;-79
2022/05/21 06:14:49;;;;;;;6.22;4.40;;;;;;;;;;5048547;28;20603;-80
2022/05/21 06:17:16;;;;;;;5.25;4.65;;;;;;;;;;5046097;28;20225;-79
2022/05/21 06:19:43;;;;;;;6.18;5.18;;;;;;;;;;5037299;28;20200;-80
2022/05/21 06:22:10;;;;;;;5.65;5.15;;;;;;;;;;5049019;28;20198;-80
2022/05/21 06:24:39;;;;;;;5.25;4.75;;;;;;;;;;5039344;28;20574;-79
2022/05/21 06:27:06;;;;;;;5.43;4.82;;;;;;;;;;5039870;28;20569;-81
2022/05/21 06:29:35;;;;;;;5.70;5.20;;;;;;;;;;5046584;28;20603;-79
2022/05/21 06:32:02;;;;;;;7.13;5.00;;;;;;;;;;5044975;28;20219;-80
2022/05/21 06:34:29;;;;;;;5.45;4.50;;;;;;;;;;5049349;28;20191;-79
2022/05/21 06:36:56;;;;;;;5.50;4.85;;;;;;;;;;5045957;28;21676;-79
2022/05/21 06:39:23;;;;;;;5.63;5.13;;;;;;;;;;5056261;28;20202;-79
2022/05/21 06:41:52;;;;;;;5.25;4.65;;;;;;;;;;5053150;28;20219;-79
2022/05/21 06:44:19;;;;;;;4.93;4.63;;;;;;;;;;5053040;28;20654;-79
2022/05/21 06:46:47;;;;;;;6.00;4.40;;;;;;;;;;5050735;28;20212;-79
2022/05/21 06:49:18;;;;;;;4.80;4.13;;;;;;;;;;5049997;28;20724;-80
2022/05/21 06:51:45;;;;;;;4.68;4.10;;;;;;;;;;5051930;28;20215;-79
2022/05/21 06:54:12;;;;;;;6.85;5.53;;;;;;;;;;5049941;28;20198;-84
2022/05/21 06:56:40;;;;;;;5.40;4.93;;;;;;;;;;5037865;28;20689;-84
2022/05/21 06:59:09;;;;;;;4.88;4.20;;;;;;;;;;5053574;28;20657;-82
2022/05/21 07:01:36;;;;;;;5.60;5.05;;;;;;;;;;5044104;28;20242;-81
2022/05/21 07:04:03;;;;;;;4.72;4.32;;;;;;;;;;5048885;28;20653;-81
2022/05/21 07:09:15;;;;;;;5.18;4.72;;;;;;;;;;5050337;28;20202;-83
2022/05/21 07:11:42;;;;;;;5.38;4.97;;;;;;;;;;5049520;28;20238;-81
2022/05/21 07:14:10;;;;;;;7.25;4.75;;;;;;;;;;5049748;28;20559;-85
2022/05/21 07:16:37;;;;;;;6.38;5.22;;;;;;;;;;5046677;28;20612;-83
2022/05/21 07:19:04;;;;;;;4.30;3.95;;;;;;;;;;5042481;28;20689;-83
2022/05/21 07:21:31;;;;;;;5.80;4.68;;;;;;;;;;5050601;28;20670;-82
2022/05/21 07:23:58;;;;;;;5.40;4.30;;;;;;;;;;5050736;28;20195;-83
2022/05/21 07:26:25;;;;;;;7.90;5.38;;;;;;;;;;5042780;28;20198;-83
2022/05/21 07:28:52;;;;;;;6.63;5.45;;;;;;;;;;5036620;28;20202;-83
2022/05/21 07:31:21;;;;;;;5.03;4.60;;;;;;;;;;5038429;28;20226;-83
2022/05/21 07:33:48;;;;;;;5.38;4.70;;;;;;;;;;5048346;28;20199;-81
2022/05/21 07:36:15;;;;;;;7.25;5.57;;;;;;;;;;5044345;28;20570;-83
2022/05/21 07:38:42;;;;;;;8.35;5.40;;;;;;;;;;5050154;28;20662;-82
2022/05/21 07:41:09;;;;;;;8.98;5.15;;;;;;;;;;5046043;28;20226;-84
2022/05/21 07:43:36;;;;;;;6.53;5.80;;;;;;;;;;5052106;28;20701;-83
2022/05/21 07:46:06;;;;;;;9.40;5.85;;;;;;;;;;5040220;28;20203;-84
2022/05/21 07:48:34;;;;;;;4.95;4.55;;;;;;;;;;5051990;28;20276;-83
2022/05/21 07:51:03;;;;;;;5.50;4.43;;;;;;;;;;5039094;28;20596;-83
2022/05/21 07:53:31;;;;;;;11.82;6.00;;;;;;;;;;5034367;28;20223;-80
2022/05/21 07:55:59;;;;;;;7.03;5.63;;;;;;;;;;5044906;28;20616;-82
2022/05/21 07:58:27;;;;;;;11.07;6.53;;;;;;;;;;5038002;28;20206;-79
2022/05/21 08:00:55;;;;;;;6.63;5.40;;;;;;;;;;5042876;28;20202;-82
2022/05/21 08:03:23;;;;;;;5.40;4.90;;;;;;;;;;5041455;28;20674;-82
2022/05/21 08:05:52;;;;;;;5.70;5.15;;;;;;;;;;5040437;28;20196;-80
2022/05/21 08:08:19;;;;;;;5.75;5.22;;;;;;;;;;5052259;28;20195;-81
2022/05/21 08:10:46;;;;;;;5.00;4.50;;;;;;;;;;5047368;28;20573;-82
2022/05/21 08:13:14;;;;;;;6.45;4.95;;;;;;;;;;5039742;28;20223;-83
2022/05/21 08:15:41;;;;;;;6.80;5.20;;;;;;;;;;5045028;28;20605;-82
2022/05/21 08:18:09;;;;;;;5.20;4.70;;;;;;;;;;5049527;28;20209;-82
2022/05/21 08:20:36;;;;;;;4.90;4.35;;;;;;;;;;5045951;28;20667;-81
2022/05/21 08:28:35;;;;;;;4.05;3.75;;;;;;;;;;5043640;28;20203;-83
2022/05/21 08:31:03;;;;;;;5.13;4.63;;;;;;;;;;5039197;28;20207;-80
2022/05/21 08:33:30;;;;;;;8.82;5.25;;;;;;;;;;5045735;28;20702;-80
2022/05/21 08:35:57;;;;;;;7.20;4.88;;;;;;;;;;5046990;28;20203;-83
2022/05/21 08:38:26;;;;;;;6.10;5.38;;;;;;;;;;5045143;28;20598;-80
2022/05/21 08:40:57;;;;;;;5.05;4.53;;;;;;;;;;5048337;28;20199;-81
2022/05/21 08:43:25;;;;;;;7.97;3.95;;;;;;;;;;5040802;28;20192;-79
2022/05/21 08:46:08;;;;;;;6.22;4.80;;;;;;;;;;5035870;28;20199;-79
2022/05/21 08:48:36;;;;;;;6.68;4.15;;;;;;;;;;5038607;28;20269;-79
2022/05/21 08:51:06;;;;;;;4.10;3.70;;;;;;;;;;5039823;28;20209;-80
2022/05/21 08:53:37;;;;;;;5.70;4.10;;;;;;;;;;5034126;28;20709;-81
2022/05/21 08:56:05;;;;;;;5.65;4.65;;;;;;;;;;5040799;28;20562;-79
2022/05/21 08:58:36;;;;;;;4.43;4.13;;;;;;;;;;5040609;28;20258;-80
2022/05/21 09:01:03;;;;;;;4.50;4.10;;;;;;;;;;5042042;28;20207;-79
2022/05/21 09:03:30;;;;;;;4.88;4.32;;;;;;;;;;5041618;28;20196;-79
2022/05/21 09:06:05;;;;;;;5.90;4.78;;;;;;;;;;5038578;28;20214;-79
2022/05/21 09:08:39;;;;;;;3.67;3.38;;;;;;;;;;5038630;28;20210;-80
2022/05/21 09:11:11;;;;;;;5.97;4.47;;;;;;;;;;5033884;28;20202;-80
2022/05/21 09:13:41;;;;;;;7.40;4.82;;;;;;;;;;5030571;28;20227;-81
2022/05/21 09:18:56;;;;;;;6.22;4.60;;;;;;;;;;5035897;28;20495;-79
2022/05/21 09:21:24;;;;;;;5.18;4.50;;;;;;;;;;5036572;28;20601;-79
2022/05/21 09:23:53;;;;;;;5.80;4.03;;;;;;;;;;5043015;28;20194;-80
2022/05/21 09:26:25;;;;;;;4.10;3.67;;;;;;;;;;5046378;28;20658;-80
2022/05/21 09:28:52;;;;;;;7.47;5.00;;;;;;;;;;5042522;28;20704;-79
2022/05/21 09:31:24;;;;;;;4.53;4.20;;;;;;;;;;5040607;28;20207;-80
2022/05/21 09:33:51;;;;;;;9.38;4.20;;;;;;;;;;5050524;28;20572;-80
2022/05/21 09:36:21;;;;;;;6.45;5.65;;;;;;;;;;5045033;28;20222;-79
2022/05/21 09:38:52;;;;;;;4.60;4.20;;;;;;;;;;5040697;28;20663;-80
2022/05/21 09:41:20;;;;;;;4.93;4.53;;;;;;;;;;5043801;28;20218;-79
2022/05/21 09:46:39;;;;;;;6.00;4.97;;;;;;;;;;5033291;28;20570;-78
2022/05/21 09:49:19;;;;;;;6.15;5.20;;;;;;;;;;5047378;28;20203;-79
2022/05/21 09:51:53;;;;;;;5.63;5.03;;;;;;;;;;5040881;28;20688;-80
2022/05/21 09:54:21;;;;;;;5.10;4.70;;;;;;;;;;5043013;28;20210;-79
2022/05/21 09:56:49;;;;;;;5.45;5.00;;;;;;;;;;5043952;28;20219;-77
2022/05/21 09:59:19;;;;;;;5.47;4.90;;;;;;;;;;5043736;28;20696;-80
2022/05/21 10:01:46;;;;;;;6.28;5.75;;;;;;;;;;5033352;28;20204;-81
2022/05/21 10:04:16;;;;;;;6.68;5.07;;;;;;;;;;5040913;28;20566;-80
2022/05/21 10:06:45;;;;;;;6.10;5.40;;;;;;;;;;5037769;28;20204;-80
2022/05/21 10:12:04;;;;;;;5.25;4.85;;;;;;;;;;5038346;28;20198;-81
2022/05/21 10:14:34;;;;;;;6.93;5.10;;;;;;;;;;5046231;28;20210;-81
2022/05/21 10:17:04;;;;;;;4.97;4.57;;;;;;;;;;5044164;28;20666;-80
2022/05/21 10:19:36;;;;;;;6.13;5.00;;;;;;;;;;5033157;28;20208;-80
2022/05/21 10:22:10;;;;;;;4.97;4.28;;;;;;;;;;5039812;28;20692;-80
2022/05/21 10:24:42;;;;;;;10.40;5.53;;;;;;;;;;5044735;28;20658;-81
2022/05/21 10:27:12;;;;;;;4.18;3.78;;;;;;;;;;5043626;28;20207;-80
2022/05/21 10:29:50;;;;;;;7.07;4.97;;;;;;;;;;5040086;28;20665;-80
2022/05/21 10:32:23;;;;;;;5.53;4.47;;;;;;;;;;5033807;28;20230;-80
2022/05/21 10:34:58;;;;;;;4.70;4.15;;;;;;;;;;5036802;28;20281;-80
2022/05/21 10:37:36;;;;;;;5.32;4.93;;;;;;;;;;5038860;28;20581;-79
2022/05/21 10:40:10;;;;;;;5.65;4.40;;;;;;;;;;5037564;28;20202;-80
2022/05/21 10:42:45;;;;;;;5.43;4.40;;;;;;;;;;5038127;28;20218;-79
2022/05/21 10:45:18;;;;;;;4.95;4.55;;;;;;;;;;5028592;28;20207;-80
2022/05/21 10:48:00;;;;;;;4.90;3.88;;;;;;;;;;5040477;28;20199;-80
2022/05/21 10:50:29;;;;;;;4.68;3.60;;;;;;;;;;5036218;28;20202;-80
2022/05/21 10:53:16;;;;;;;4.88;3.95;;;;;;;;;;5042073;28;20225;-81
2022/05/21 10:55:48;;;;;;;5.82;4.05;;;;;;;;;;5039028;28;20194;-80
2022/05/21 10:58:36;;;;;;;6.68;4.45;;;;;;;;;;5039502;28;20568;-83
2022/05/21 11:01:10;;;;;;;4.88;4.45;;;;;;;;;;5044965;28;20203;-79
2022/05/21 11:03:42;;;;;;;5.00;4.57;;;;;;;;;;5043270;28;20202;-81
2022/05/21 11:06:16;;;;;;;4.50;4.10;;;;;;;;;;5032108;28;20214;-80
2022/05/21 11:08:47;;;;;;;6.30;4.40;;;;;;;;;;5040007;28;20676;-80
2022/05/21 11:11:34;;;;;;;6.82;5.00;;;;;;;;;;5043935;28;20579;-79
2022/05/21 11:14:03;;;;;;;6.95;4.85;;;;;;;;;;5040633;28;20238;-79
2022/05/21 11:16:35;;;;;;;4.75;4.22;;;;;;;;;;5040973;28;20195;-82
2022/05/21 11:19:06;;;;;;;3.90;3.60;;;;;;;;;;5042362;28;20195;-81
2022/05/21 11:21:36;;;;;;;4.32;4.03;;;;;;;;;;5032140;28;20285;-79
2022/05/21 11:24:05;;;;;;;5.20;4.70;;;;;;;;;;5048527;28;20206;-81
2022/05/21 11:26:36;;;;;;;4.13;3.83;;;;;;;;;;5046076;28;20206;-81
2022/05/21 11:29:06;;;;;;;8.18;4.18;;;;;;;;;;5050934;28;20199;-81
2022/05/21 11:37:21;;;;;;;4.88;4.35;;;;;;;;;;5048346;28;20248;-82
2022/05/21 11:39:49;;;;;;;4.25;3.50;;;;;;;;;;5051009;28;20232;-80
2022/05/21 11:42:17;;;;;;;5.88;4.20;;;;;;;;;;5055515;28;20250;-80
2022/05/21 11:44:58;;;;;;;4.47;3.90;;;;;;;;;;5032760;28;20196;-80
2022/05/21 11:47:34;;;;;;;5.15;4.55;;;;;;;;;;5044890;28;20207;-81
2022/05/21 11:50:13;;;;;;;5.25;4.57;;;;;;;;;;5041526;28;20213;-80
2022/05/21 11:52:52;;;;;;;6.40;4.40;;;;;;;;;;5041715;28;20321;-83
2022/05/21 11:55:21;;;;;;;4.32;3.67;;;;;;;;;;5043363;28;20195;-81
2022/05/21 11:57:49;;;;;;;4.85;3.65;;;;;;;;;;5042721;28;20689;-80
2022/05/21 12:00:35;;;;;;;5.95;4.10;;;;;;;;;;5040888;28;20225;-80
2022/05/21 12:03:14;;;;;;;7.57;4.25;;;;;;;;;;5035948;28;20206;-80
2022/05/21 12:05:56;;;;;;;4.13;3.55;;;;;;;;;;5045087;28;20206;-80
2022/05/21 12:08:36;;;;;;;6.03;4.05;;;;;;;;;;5038646;28;20204;-80
2022/05/21 12:11:04;;;;;;;4.05;3.75;;;;;;;;;;5046398;28;20904;-80
2022/05/21 12:13:47;;;;;;;3.58;3.28;;;;;;;;;;5035455;28;20227;-80
2022/05/21 12:16:29;;;;;;;5.25;4.28;;;;;;;;;;5037478;28;20234;-80
2022/05/21 12:18:58;;;;;;;4.60;4.20;;;;;;;;;;5050790;28;20202;-80
2022/05/21 12:21:58;;;;;;;4.50;3.92;;;;;;;;;;5036407;28;20566;-80
2022/05/21 12:24:36;;;;;;;4.78;3.53;;;;;;;;;;4961841;28;20201;-81
2022/05/21 12:27:05;;;;;;;4.80;4.28;;;;;;;;;;4962238;28;20297;-79
2022/05/21 12:29:33;;;;;;;3.88;3.47;;;;;;;;;;4998560;28;20214;-79
2022/05/21 12:32:02;;;;;;;6.68;4.20;;;;;;;;;;5050309;28;20542;-81
2022/05/21 12:34:48;;;;;;;3.90;3.60;;;;;;;;;;5043907;28;20307;-82
2022/05/21 12:37:18;;;;;;;4.40;3.55;;;;;;;;;;5049117;28;20294;-81
2022/05/21 12:39:55;;;;;;;4.53;4.05;;;;;;;;;;5048651;28;20198;-80
2022/05/21 12:42:25;;;;;;;4.22;3.83;;;;;;;;;;5048506;28;20231;-80
2022/05/21 12:44:53;;;;;;;5.97;3.85;;;;;;;;;;5047036;28;20198;-80
2022/05/21 12:47:28;;;;;;;3.38;3.17;;;;;;;;;;5038226;28;20202;-80
2022/05/21 12:49:57;;;;;;;4.68;4.30;;;;;;;;;;5049638;28;20199;-81
2022/05/21 12:52:25;;;;;;;4.43;3.80;;;;;;;;;;5037746;28;20804;-81
2022/05/21 12:55:08;;;;;;;3.75;3.45;;;;;;;;;;5032978;28;20238;-81
2022/05/21 12:57:35;;;;;;;4.90;4.25;;;;;;;;;;5030726;28;20202;-79
2022/05/21 13:00:04;;;;;;;5.22;3.47;;;;;;;;;;5039674;28;20261;-80
2022/05/21 13:02:39;;;;;;;4.03;2.95;;;;;;;;;;5049346;28;20210;-80
2022/05/21 13:05:10;;;;;;;4.47;3.78;;;;;;;;;;5045799;28;20669;-81
2022/05/21 13:07:41;;;;;;;6.20;3.65;;;;;;;;;;5035955;28;20195;-80
2022/05/21 13:10:18;;;;;;;4.97;3.95;;;;;;;;;;5049892;28;20199;-79
2022/05/21 13:12:47;;;;;;;7.93;3.70;;;;;;;;;;5033483;28;20198;-82
2022/05/21 13:15:15;;;;;;;4.78;3.33;;;;;;;;;;5040348;28;20617;-79
2022/05/21 13:17:46;;;;;;;4.47;2.80;;;;;;;;;;5046830;28;20203;-79
2022/05/21 13:20:17;;;;;;;8.00;3.40;;;;;;;;;;5047448;28;20647;-79
2022/05/21 13:23:04;;;;;;;8.85;4.45;;;;;;;;;;5043878;28;20214;-83
2022/05/21 13:25:31;;;;;;;4.18;3.78;;;;;;;;;;5040781;28;20203;-80
2022/05/21 13:27:58;;;;;;;4.32;3.03;;;;;;;;;;5044948;28;20206;-80
2022/05/21 13:30:32;;;;;;;3.70;3.40;;;;;;;;;;5037527;28;20211;-80
2022/05/21 13:33:00;;;;;;;6.50;4.35;;;;;;;;;;5037318;28;20203;-80
2022/05/21 13:35:31;;;;;;;3.20;2.67;;;;;;;;;;5045351;28;20199;-81
2022/05/21 13:37:59;;;;;;;4.63;4.15;;;;;;;;;;5044023;28;20701;-81
2022/05/21 13:40:27;;;;;;;4.20;2.45;;;;;;;;;;5045480;28;20210;-79
2022/05/21 13:42:56;;;;;;;4.15;3.80;;;;;;;;;;5041968;28;20230;-80
2022/05/21 13:45:28;;;;;;;4.30;3.15;;;;;;;;;;5038356;28;20203;-81
2022/05/21 13:47:57;;;;;;;3.25;2.95;;;;;;;;;;5034113;28;20606;-81
2022/05/21 13:50:26;;;;;;;4.07;3.63;;;;;;;;;;5045924;28;20198;-79
2022/05/21 13:52:54;;;;;;;3.10;2.90;;;;;;;;;;5036666;28;20210;-81
2022/05/21 13:55:22;;;;;;;3.30;2.85;;;;;;;;;;5045472;28;20207;-80
2022/05/21 13:57:50;;;;;;;4.43;2.70;;;;;;;;;;5034782;28;20234;-81
2022/05/21 14:00:29;;;;;;;5.30;3.55;;;;;;;;;;5037167;28;20253;-81
2022/05/21 14:02:56;;;;;;;6.47;3.55;;;;;;;;;;5040235;28;20203;-80
2022/05/21 14:05:25;;;;;;;3.50;3.05;;;;;;;;;;5044736;28;20202;-80
2022/05/21 14:07:55;;;;;;;3.97;3.58;;;;;;;;;;5047464;28;20208;-78
2022/05/21 14:10:33;;;;;;;4.03;3.60;;;;;;;;;;5046726;28;20206;-79
2022/05/21 14:13:05;;;;;;;4.00;2.97;;;;;;;;;;5047199;28;20205;-80
2022/05/21 14:15:34;;;;;;;3.55;3.13;;;;;;;;;;5042273;28;20734;-80
2022/05/21 14:18:04;;;;;;;4.88;3.10;;;;;;;;;;5034359;28;20203;-78
2022/05/21 14:20:32;;;;;;;4.32;3.40;;;;;;;;;;5035093;28;20196;-81
2022/05/21 14:23:17;;;;;;;4.05;2.75;;;;;;;;;;5039276;28;20202;-79
2022/05/21 14:25:45;;;;;;;3.83;2.70;;;;;;;;;;5032028;28;20199;-80
2022/05/21 14:28:23;;;;;;;4.05;2.90;;;;;;;;;;5033995;28;20207;-80
2022/05/21 14:30:52;;;;;;;4.00;2.90;;;;;;;;;;5038003;28;20206;-81
2022/05/21 14:33:21;;;;;;;4.78;3.45;;;;;;;;;;5039901;28;20207;-80
2022/05/21 14:35:49;;;;;;;6.57;3.60;;;;;;;;;;5044051;28;20622;-79
2022/05/21 14:38:20;;;;;;;4.32;3.28;;;;;;;;;;5042009;28;20658;-81
2022/05/21 14:40:51;;;;;;;4.32;3.92;;;;;;;;;;5035575;28;20203;-80
2022/05/21 14:43:26;;;;;;;4.47;4.07;;;;;;;;;;5041798;28;20195;-79
2022/05/21 14:45:53;;;;;;;3.22;2.58;;;;;;;;;;5029237;28;20659;-79
2022/05/21 14:48:19;;;;;;;3.80;2.90;;;;;;;;;;5029795;28;20211;-81
2022/05/21 14:53:36;;;;;;;4.18;2.90;;;;;;;;;;5042551;28;20221;-80
2022/05/21 14:56:06;;;;;;;3.92;3.30;;;;;;;;;;5035432;28;20226;-79
2022/05/21 14:58:33;;;;;;;2.90;2.70;;;;;;;;;;5038194;28;20574;-79
2022/05/21 15:01:01;;;;;;;3.75;2.20;;;;;;;;;;5046541;28;20195;-81
2022/05/21 15:03:28;;;;;;;2.85;2.65;;;;;;;;;;5033408;28;20207;-78
2022/05/21 15:05:55;;;;;;;8.10;3.08;;;;;;;;;;5045776;28;20667;-83
2022/05/21 15:08:23;;;;;;;2.47;2.28;;;;;;;;;;5041920;28;20215;-82
2022/05/21 15:10:50;;;;;;;3.20;2.90;;;;;;;;;;5048702;28;20210;-80
2022/05/21 15:13:19;;;;;;;3.17;2.97;;;;;;;;;;5042081;28;20729;-77
2022/05/21 15:15:46;;;;;;;7.63;3.88;;;;;;;;;;5046151;28;20290;-80
2022/05/21 15:18:13;;;;;;;3.05;2.40;;;;;;;;;;5056343;28;20199;-80
2022/05/21 15:20:40;;;;;;;3.42;2.80;;;;;;;;;;5052281;28;21046;-80
2022/05/21 15:23:09;;;;;;;2.92;2.72;;;;;;;;;;5041865;28;22247;-80
2022/05/21 15:25:37;;;;;;;3.65;3.05;;;;;;;;;;5045136;28;20199;-80
2022/05/21 15:28:06;;;;;;;3.15;2.47;;;;;;;;;;5045736;28;20288;-82
2022/05/21 15:30:35;;;;;;;3.25;3.03;;;;;;;;;;5048610;28;20219;-79
2022/05/21 15:33:02;;;;;;;2.67;2.47;;;;;;;;;;5045832;28;20455;-79